sensor_id;sensor_type;location;lat;lon;timestamp;temperature;humidity
57753;DHT22;43583;53.132;6.574;2023-12-20T00:02:20;6.50;99.90
57753;DHT22;43583;53.132;6.574;2023-12-20T00:04:45;6.50;99.90
57753;DHT22;43583;53.132;6.574;2023-12-20T00:07:11;6.40;99.90
57753;DHT22;43583;53.132;6.574;2023-12-20T00:09:36;6.40;99.90
57753;DHT22;43583;53.132;6.574;2023-12-20T00:12:02;6.40;99.90
57753;DHT22;43583;53.132;6.574;2023-12-20T00:14:28;6.30;99.90
57753;DHT22;43583;53.132;6.574;2023-12-20T00:16:53;6.40;99.90
57753;DHT22;43583;53.132;6.574;2023-12-20T00:19:19;6.30;99.90
57753;DHT22;43583;53.132;6.574;2023-12-20T00:21:46;6.30;99.90
57753;DHT22;43583;53.132;6.574;2023-12-20T00:24:11;6.20;99.90
57753;DHT22;43583;53.132;6.574;2023-12-20T00:26:37;6.10;99.90
57753;DHT22;43583;53.132;6.574;2023-12-20T00:29:03;6.10;99.90
57753;DHT22;43583;53.132;6.574;2023-12-20T00:31:28;6.10;99.90
57753;DHT22;43583;53.132;6.574;2023-12-20T00:33:54;6.10;99.90
57753;DHT22;43583;53.132;6.574;2023-12-20T00:36:20;6.10;99.90
57753;DHT22;43583;53.132;6.574;2023-12-20T00:38:45;6.10;99.90
57753;DHT22;43583;53.132;6.574;2023-12-20T00:41:11;6.10;99.90
57753;DHT22;43583;53.132;6.574;2023-12-20T00:43:37;6.10;99.90
57753;DHT22;43583;53.132;6.574;2023-12-20T00:46:02;6.10;99.90
57753;DHT22;43583;53.132;6.574;2023-12-20T00:48:28;6.10;99.90
57753;DHT22;43583;53.132;6.574;2023-12-20T00:50:55;6.10;99.90
57753;DHT22;43583;53.132;6.574;2023-12-20T00:53:21;6.10;99.90
57753;DHT22;43583;53.132;6.574;2023-12-20T00:55:47;6.10;99.90
57753;DHT22;43583;53.132;6.574;2023-12-20T00:58:12;6.20;99.90
57753;DHT22;43583;53.132;6.574;2023-12-20T01:00:41;6.20;99.90
57753;DHT22;43583;53.132;6.574;2023-12-20T01:03:08;6.20;99.90
57753;DHT22;43583;53.132;6.574;2023-12-20T01:05:34;6.20;99.90
57753;DHT22;43583;53.132;6.574;2023-12-20T01:07:59;6.20;99.90
57753;DHT22;43583;53.132;6.574;2023-12-20T01:10:25;6.20;99.90
57753;DHT22;43583;53.132;6.574;2023-12-20T01:12:53;6.10;99.90
57753;DHT22;43583;53.132;6.574;2023-12-20T01:15:19;6.10;99.90
57753;DHT22;43583;53.132;6.574;2023-12-20T01:17:44;6.20;99.90
57753;DHT22;43583;53.132;6.574;2023-12-20T01:20:10;6.20;99.90
57753;DHT22;43583;53.132;6.574;2023-12-20T01:22:36;6.20;99.90
57753;DHT22;43583;53.132;6.574;2023-12-20T01:25:02;6.30;99.90
57753;DHT22;43583;53.132;6.574;2023-12-20T01:27:28;6.30;99.90
57753;DHT22;43583;53.132;6.574;2023-12-20T01:29:54;6.30;99.90
57753;DHT22;43583;53.132;6.574;2023-12-20T01:32:20;6.30;99.90
57753;DHT22;43583;53.132;6.574;2023-12-20T01:34:45;6.20;99.90
57753;DHT22;43583;53.132;6.574;2023-12-20T01:37:11;6.30;99.90
57753;DHT22;43583;53.132;6.574;2023-12-20T01:39:37;6.30;99.90
57753;DHT22;43583;53.132;6.574;2023-12-20T01:42:02;6.30;99.90
57753;DHT22;43583;53.132;6.574;2023-12-20T01:44:28;6.40;99.90
57753;DHT22;43583;53.132;6.574;2023-12-20T01:46:54;6.50;99.90
57753;DHT22;43583;53.132;6.574;2023-12-20T01:49:20;6.60;99.90
57753;DHT22;43583;53.132;6.574;2023-12-20T01:51:46;6.70;99.90
57753;DHT22;43583;53.132;6.574;2023-12-20T01:54:12;6.70;99.90
57753;DHT22;43583;53.132;6.574;2023-12-20T01:56:39;6.80;99.90
57753;DHT22;43583;53.132;6.574;2023-12-20T01:59:06;6.70;99.90
57753;DHT22;43583;53.132;6.574;2023-12-20T02:01:33;6.70;99.90
57753;DHT22;43583;53.132;6.574;2023-12-20T02:03:59;6.70;99.90
57753;DHT22;43583;53.132;6.574;2023-12-20T02:06:29;6.60;99.90
57753;DHT22;43583;53.132;6.574;2023-12-20T02:08:57;6.50;99.90
57753;DHT22;43583;53.132;6.574;2023-12-20T02:11:24;6.50;99.90
57753;DHT22;43583;53.132;6.574;2023-12-20T02:13:50;6.40;99.90
57753;DHT22;43583;53.132;6.574;2023-12-20T02:16:16;6.40;99.90
57753;DHT22;43583;53.132;6.574;2023-12-20T02:18:43;6.40;99.90
57753;DHT22;43583;53.132;6.574;2023-12-20T02:21:10;6.30;99.90
57753;DHT22;43583;53.132;6.574;2023-12-20T02:23:35;6.30;99.90
57753;DHT22;43583;53.132;6.574;2023-12-20T02:26:01;6.40;99.90
57753;DHT22;43583;53.132;6.574;2023-12-20T02:28:28;6.50;99.90
57753;DHT22;43583;53.132;6.574;2023-12-20T02:30:53;6.60;99.90
57753;DHT22;43583;53.132;6.574;2023-12-20T02:33:19;6.60;99.90
57753;DHT22;43583;53.132;6.574;2023-12-20T02:35:45;6.70;99.90
57753;DHT22;43583;53.132;6.574;2023-12-20T02:38:10;6.60;99.90
57753;DHT22;43583;53.132;6.574;2023-12-20T02:40:36;6.70;99.90
57753;DHT22;43583;53.132;6.574;2023-12-20T02:43:02;6.60;99.90
57753;DHT22;43583;53.132;6.574;2023-12-20T02:45:27;6.60;99.90
57753;DHT22;43583;53.132;6.574;2023-12-20T02:47:53;6.70;99.90
57753;DHT22;43583;53.132;6.574;2023-12-20T02:50:19;6.60;99.90
57753;DHT22;43583;53.132;6.574;2023-12-20T02:52:45;6.60;99.90
57753;DHT22;43583;53.132;6.574;2023-12-20T02:55:11;6.60;99.90
57753;DHT22;43583;53.132;6.574;2023-12-20T02:57:37;6.50;99.90
57753;DHT22;43583;53.132;6.574;2023-12-20T03:00:08;6.50;99.90
57753;DHT22;43583;53.132;6.574;2023-12-20T03:02:34;6.50;99.90
57753;DHT22;43583;53.132;6.574;2023-12-20T03:05:00;6.50;99.90
57753;DHT22;43583;53.132;6.574;2023-12-20T03:07:25;6.60;99.90
57753;DHT22;43583;53.132;6.574;2023-12-20T03:09:51;6.60;99.90
57753;DHT22;43583;53.132;6.574;2023-12-20T03:12:17;6.60;99.90
57753;DHT22;43583;53.132;6.574;2023-12-20T03:14:43;6.60;99.90
57753;DHT22;43583;53.132;6.574;2023-12-20T03:17:09;6.60;99.90
57753;DHT22;43583;53.132;6.574;2023-12-20T03:19:35;6.60;99.90
57753;DHT22;43583;53.132;6.574;2023-12-20T03:22:01;6.60;99.90
57753;DHT22;43583;53.132;6.574;2023-12-20T03:24:27;6.60;99.90
57753;DHT22;43583;53.132;6.574;2023-12-20T03:26:53;6.70;99.90
57753;DHT22;43583;53.132;6.574;2023-12-20T03:29:18;6.70;99.90
57753;DHT22;43583;53.132;6.574;2023-12-20T03:31:44;6.80;99.90
57753;DHT22;43583;53.132;6.574;2023-12-20T03:34:10;6.90;99.90
57753;DHT22;43583;53.132;6.574;2023-12-20T03:36:36;7.00;99.90
57753;DHT22;43583;53.132;6.574;2023-12-20T03:39:01;7.00;99.90
57753;DHT22;43583;53.132;6.574;2023-12-20T03:41:27;7.10;99.90
57753;DHT22;43583;53.132;6.574;2023-12-20T03:43:52;7.00;99.90
57753;DHT22;43583;53.132;6.574;2023-12-20T03:46:18;7.00;99.90
57753;DHT22;43583;53.132;6.574;2023-12-20T03:48:44;6.90;99.90
57753;DHT22;43583;53.132;6.574;2023-12-20T03:51:09;6.80;99.90
57753;DHT22;43583;53.132;6.574;2023-12-20T03:53:35;6.70;99.90
57753;DHT22;43583;53.132;6.574;2023-12-20T03:56:00;6.70;99.90
57753;DHT22;43583;53.132;6.574;2023-12-20T03:58:26;6.70;99.90
57753;DHT22;43583;53.132;6.574;2023-12-20T04:00:52;6.70;99.90
57753;DHT22;43583;53.132;6.574;2023-12-20T04:03:17;6.70;99.90
57753;DHT22;43583;53.132;6.574;2023-12-20T04:05:43;6.80;99.90
57753;DHT22;43583;53.132;6.574;2023-12-20T04:08:09;6.80;99.90
57753;DHT22;43583;53.132;6.574;2023-12-20T04:10:35;6.80;99.90
57753;DHT22;43583;53.132;6.574;2023-12-20T04:13:00;6.90;99.90
57753;DHT22;43583;53.132;6.574;2023-12-20T04:15:26;6.80;99.90
57753;DHT22;43583;53.132;6.574;2023-12-20T04:17:52;6.80;99.90
57753;DHT22;43583;53.132;6.574;2023-12-20T04:20:17;6.90;99.90
57753;DHT22;43583;53.132;6.574;2023-12-20T04:22:43;6.90;99.90
57753;DHT22;43583;53.132;6.574;2023-12-20T04:25:09;7.00;99.90
57753;DHT22;43583;53.132;6.574;2023-12-20T04:27:35;7.10;99.90
57753;DHT22;43583;53.132;6.574;2023-12-20T04:30:00;7.10;99.90
57753;DHT22;43583;53.132;6.574;2023-12-20T04:32:26;7.10;99.90
57753;DHT22;43583;53.132;6.574;2023-12-20T04:34:52;7.10;99.90
57753;DHT22;43583;53.132;6.574;2023-12-20T04:37:17;7.20;99.90
57753;DHT22;43583;53.132;6.574;2023-12-20T04:39:43;7.20;99.90
57753;DHT22;43583;53.132;6.574;2023-12-20T04:42:09;7.20;99.90
57753;DHT22;43583;53.132;6.574;2023-12-20T04:44:34;7.20;99.90
57753;DHT22;43583;53.132;6.574;2023-12-20T04:47:00;7.20;99.90
57753;DHT22;43583;53.132;6.574;2023-12-20T04:49:26;7.20;99.90
57753;DHT22;43583;53.132;6.574;2023-12-20T04:51:52;7.20;99.90
57753;DHT22;43583;53.132;6.574;2023-12-20T04:54:17;7.20;99.90
57753;DHT22;43583;53.132;6.574;2023-12-20T04:56:43;7.20;99.90
57753;DHT22;43583;53.132;6.574;2023-12-20T04:59:09;7.30;99.90
57753;DHT22;43583;53.132;6.574;2023-12-20T05:01:34;7.30;99.90
57753;DHT22;43583;53.132;6.574;2023-12-20T05:04:00;7.30;99.90
57753;DHT22;43583;53.132;6.574;2023-12-20T05:06:25;7.40;99.90
57753;DHT22;43583;53.132;6.574;2023-12-20T05:08:51;7.40;99.90
57753;DHT22;43583;53.132;6.574;2023-12-20T05:11:17;7.50;99.90
57753;DHT22;43583;53.132;6.574;2023-12-20T05:13:43;7.60;99.90
57753;DHT22;43583;53.132;6.574;2023-12-20T05:16:09;7.50;99.90
57753;DHT22;43583;53.132;6.574;2023-12-20T05:18:35;7.50;99.90
57753;DHT22;43583;53.132;6.574;2023-12-20T05:21:00;7.60;99.90
57753;DHT22;43583;53.132;6.574;2023-12-20T05:23:26;7.60;99.90
57753;DHT22;43583;53.132;6.574;2023-12-20T05:25:52;7.60;99.90
57753;DHT22;43583;53.132;6.574;2023-12-20T05:28:17;7.60;99.90
57753;DHT22;43583;53.132;6.574;2023-12-20T05:30:43;7.70;99.90
57753;DHT22;43583;53.132;6.574;2023-12-20T05:33:09;7.70;99.90
57753;DHT22;43583;53.132;6.574;2023-12-20T05:35:35;7.70;99.90
57753;DHT22;43583;53.132;6.574;2023-12-20T05:38:00;7.70;99.90
57753;DHT22;43583;53.132;6.574;2023-12-20T05:40:26;7.70;99.90
57753;DHT22;43583;53.132;6.574;2023-12-20T05:42:51;7.70;99.90
57753;DHT22;43583;53.132;6.574;2023-12-20T05:45:17;7.70;99.90
57753;DHT22;43583;53.132;6.574;2023-12-20T05:47:43;7.70;99.90
57753;DHT22;43583;53.132;6.574;2023-12-20T05:50:08;7.70;99.90
57753;DHT22;43583;53.132;6.574;2023-12-20T05:52:34;7.70;99.90
57753;DHT22;43583;53.132;6.574;2023-12-20T05:55:00;7.80;99.90
57753;DHT22;43583;53.132;6.574;2023-12-20T05:57:28;7.80;99.90
57753;DHT22;43583;53.132;6.574;2023-12-20T05:59:54;7.80;99.90
57753;DHT22;43583;53.132;6.574;2023-12-20T06:02:19;7.80;99.90
57753;DHT22;43583;53.132;6.574;2023-12-20T06:04:45;7.80;99.90
57753;DHT22;43583;53.132;6.574;2023-12-20T06:07:14;7.80;99.90
57753;DHT22;43583;53.132;6.574;2023-12-20T06:09:41;7.80;99.90
57753;DHT22;43583;53.132;6.574;2023-12-20T06:12:07;7.80;99.90
57753;DHT22;43583;53.132;6.574;2023-12-20T06:14:33;7.90;99.90
57753;DHT22;43583;53.132;6.574;2023-12-20T06:17:00;7.80;99.90
57753;DHT22;43583;53.132;6.574;2023-12-20T06:19:26;7.80;99.90
57753;DHT22;43583;53.132;6.574;2023-12-20T06:21:52;7.80;99.90
57753;DHT22;43583;53.132;6.574;2023-12-20T06:24:18;7.90;99.90
57753;DHT22;43583;53.132;6.574;2023-12-20T06:26:43;7.80;99.90
57753;DHT22;43583;53.132;6.574;2023-12-20T06:29:09;7.90;99.90
57753;DHT22;43583;53.132;6.574;2023-12-20T06:31:35;7.90;99.90
57753;DHT22;43583;53.132;6.574;2023-12-20T06:34:01;7.90;99.90
57753;DHT22;43583;53.132;6.574;2023-12-20T06:36:27;7.90;99.90
57753;DHT22;43583;53.132;6.574;2023-12-20T06:38:53;8.00;99.90
57753;DHT22;43583;53.132;6.574;2023-12-20T06:41:18;7.90;99.90
57753;DHT22;43583;53.132;6.574;2023-12-20T06:43:44;8.00;99.90
57753;DHT22;43583;53.132;6.574;2023-12-20T06:46:10;8.00;99.90
57753;DHT22;43583;53.132;6.574;2023-12-20T06:48:36;7.90;99.90
57753;DHT22;43583;53.132;6.574;2023-12-20T06:51:02;8.00;99.90
57753;DHT22;43583;53.132;6.574;2023-12-20T06:53:28;8.00;99.90
57753;DHT22;43583;53.132;6.574;2023-12-20T06:55:54;8.00;99.90
57753;DHT22;43583;53.132;6.574;2023-12-20T06:58:22;8.00;99.90
57753;DHT22;43583;53.132;6.574;2023-12-20T07:00:50;8.00;99.90
57753;DHT22;43583;53.132;6.574;2023-12-20T07:03:17;8.00;99.90
57753;DHT22;43583;53.132;6.574;2023-12-20T07:05:43;8.00;99.90
57753;DHT22;43583;53.132;6.574;2023-12-20T07:08:09;8.00;99.90
57753;DHT22;43583;53.132;6.574;2023-12-20T07:10:35;8.00;99.90
57753;DHT22;43583;53.132;6.574;2023-12-20T07:13:01;8.00;99.90
57753;DHT22;43583;53.132;6.574;2023-12-20T07:15:27;8.00;99.90
57753;DHT22;43583;53.132;6.574;2023-12-20T07:17:54;8.00;99.90
57753;DHT22;43583;53.132;6.574;2023-12-20T07:20:20;8.10;99.90
57753;DHT22;43583;53.132;6.574;2023-12-20T07:22:46;8.10;99.90
57753;DHT22;43583;53.132;6.574;2023-12-20T07:25:11;8.10;99.90
57753;DHT22;43583;53.132;6.574;2023-12-20T07:27:37;8.10;99.90
57753;DHT22;43583;53.132;6.574;2023-12-20T07:30:03;8.10;99.90
57753;DHT22;43583;53.132;6.574;2023-12-20T07:32:29;8.10;99.90
57753;DHT22;43583;53.132;6.574;2023-12-20T07:34:55;8.20;99.90
57753;DHT22;43583;53.132;6.574;2023-12-20T07:37:21;8.20;99.90
57753;DHT22;43583;53.132;6.574;2023-12-20T07:39:47;8.20;99.90
57753;DHT22;43583;53.132;6.574;2023-12-20T07:42:12;8.20;99.90
57753;DHT22;43583;53.132;6.574;2023-12-20T07:44:38;8.20;99.90
57753;DHT22;43583;53.132;6.574;2023-12-20T07:47:04;8.20;99.90
57753;DHT22;43583;53.132;6.574;2023-12-20T07:49:31;8.20;99.90
57753;DHT22;43583;53.132;6.574;2023-12-20T07:51:57;8.20;99.90
57753;DHT22;43583;53.132;6.574;2023-12-20T07:54:23;8.20;99.90
57753;DHT22;43583;53.132;6.574;2023-12-20T07:56:49;8.30;99.90
57753;DHT22;43583;53.132;6.574;2023-12-20T07:59:15;8.30;99.90
57753;DHT22;43583;53.132;6.574;2023-12-20T08:01:41;8.30;99.90
57753;DHT22;43583;53.132;6.574;2023-12-20T08:04:07;8.30;99.90
57753;DHT22;43583;53.132;6.574;2023-12-20T08:06:33;8.30;99.90
57753;DHT22;43583;53.132;6.574;2023-12-20T08:08:58;8.30;99.90
57753;DHT22;43583;53.132;6.574;2023-12-20T08:11:24;8.30;99.90
57753;DHT22;43583;53.132;6.574;2023-12-20T08:13:50;8.30;99.90
57753;DHT22;43583;53.132;6.574;2023-12-20T08:16:16;8.30;99.90
57753;DHT22;43583;53.132;6.574;2023-12-20T08:18:43;8.30;99.90
57753;DHT22;43583;53.132;6.574;2023-12-20T08:21:09;8.30;99.90
57753;DHT22;43583;53.132;6.574;2023-12-20T08:23:35;8.30;99.90
57753;DHT22;43583;53.132;6.574;2023-12-20T08:26:05;8.30;99.90
57753;DHT22;43583;53.132;6.574;2023-12-20T08:28:31;8.30;99.90
57753;DHT22;43583;53.132;6.574;2023-12-20T08:30:57;8.20;99.90
57753;DHT22;43583;53.132;6.574;2023-12-20T08:33:22;8.20;99.90
57753;DHT22;43583;53.132;6.574;2023-12-20T08:35:48;8.10;99.90
57753;DHT22;43583;53.132;6.574;2023-12-20T08:38:14;8.10;99.90
57753;DHT22;43583;53.132;6.574;2023-12-20T08:40:39;8.10;99.90
57753;DHT22;43583;53.132;6.574;2023-12-20T08:43:05;8.10;99.90
57753;DHT22;43583;53.132;6.574;2023-12-20T08:45:31;8.20;99.90
57753;DHT22;43583;53.132;6.574;2023-12-20T08:47:56;8.20;99.90
57753;DHT22;43583;53.132;6.574;2023-12-20T08:50:22;8.20;99.90
57753;DHT22;43583;53.132;6.574;2023-12-20T08:52:49;8.30;99.90
57753;DHT22;43583;53.132;6.574;2023-12-20T08:55:15;8.40;99.90
57753;DHT22;43583;53.132;6.574;2023-12-20T08:57:43;8.40;99.90
57753;DHT22;43583;53.132;6.574;2023-12-20T09:00:09;8.40;99.90
57753;DHT22;43583;53.132;6.574;2023-12-20T09:02:35;8.30;99.90
57753;DHT22;43583;53.132;6.574;2023-12-20T09:05:02;8.30;99.90
57753;DHT22;43583;53.132;6.574;2023-12-20T09:07:28;8.20;99.90
57753;DHT22;43583;53.132;6.574;2023-12-20T09:09:56;7.50;99.90
57753;DHT22;43583;53.132;6.574;2023-12-20T09:12:22;7.10;99.90
57753;DHT22;43583;53.132;6.574;2023-12-20T09:14:49;6.90;99.90
57753;DHT22;43583;53.132;6.574;2023-12-20T09:17:18;6.80;99.90
57753;DHT22;43583;53.132;6.574;2023-12-20T09:19:44;6.70;99.90
57753;DHT22;43583;53.132;6.574;2023-12-20T09:22:10;6.80;99.90
57753;DHT22;43583;53.132;6.574;2023-12-20T09:24:36;6.70;99.90
57753;DHT22;43583;53.132;6.574;2023-12-20T09:27:01;6.70;99.90
57753;DHT22;43583;53.132;6.574;2023-12-20T09:29:29;6.70;99.90
57753;DHT22;43583;53.132;6.574;2023-12-20T09:31:54;6.70;99.90
57753;DHT22;43583;53.132;6.574;2023-12-20T09:34:20;6.70;99.90
57753;DHT22;43583;53.132;6.574;2023-12-20T09:36:46;6.70;99.90
57753;DHT22;43583;53.132;6.574;2023-12-20T09:39:20;6.60;99.90
57753;DHT22;43583;53.132;6.574;2023-12-20T09:41:57;6.70;99.90
57753;DHT22;43583;53.132;6.574;2023-12-20T09:44:25;6.70;99.90
57753;DHT22;43583;53.132;6.574;2023-12-20T09:46:52;6.70;99.90
57753;DHT22;43583;53.132;6.574;2023-12-20T09:49:18;6.70;99.90
57753;DHT22;43583;53.132;6.574;2023-12-20T09:51:46;6.80;99.90
57753;DHT22;43583;53.132;6.574;2023-12-20T09:54:14;6.80;99.90
57753;DHT22;43583;53.132;6.574;2023-12-20T09:56:41;6.90;99.90
57753;DHT22;43583;53.132;6.574;2023-12-20T09:59:06;6.90;99.90
57753;DHT22;43583;53.132;6.574;2023-12-20T10:01:33;6.90;99.90
57753;DHT22;43583;53.132;6.574;2023-12-20T10:04:00;7.00;99.90
57753;DHT22;43583;53.132;6.574;2023-12-20T10:06:26;6.90;99.90
57753;DHT22;43583;53.132;6.574;2023-12-20T10:08:52;6.90;99.90
57753;DHT22;43583;53.132;6.574;2023-12-20T10:11:18;6.90;99.90
57753;DHT22;43583;53.132;6.574;2023-12-20T10:13:47;7.00;99.90
57753;DHT22;43583;53.132;6.574;2023-12-20T10:16:13;7.00;99.90
57753;DHT22;43583;53.132;6.574;2023-12-20T10:18:39;7.10;99.90
57753;DHT22;43583;53.132;6.574;2023-12-20T10:21:06;7.10;99.90
57753;DHT22;43583;53.132;6.574;2023-12-20T10:23:32;7.10;99.90
57753;DHT22;43583;53.132;6.574;2023-12-20T10:25:58;7.10;99.90
57753;DHT22;43583;53.132;6.574;2023-12-20T10:28:25;7.10;99.90
57753;DHT22;43583;53.132;6.574;2023-12-20T10:30:54;7.10;99.90
57753;DHT22;43583;53.132;6.574;2023-12-20T10:33:27;7.20;99.90
57753;DHT22;43583;53.132;6.574;2023-12-20T10:35:53;7.20;99.90
57753;DHT22;43583;53.132;6.574;2023-12-20T10:38:20;7.20;99.90
57753;DHT22;43583;53.132;6.574;2023-12-20T10:41:01;7.20;99.90
57753;DHT22;43583;53.132;6.574;2023-12-20T10:43:30;7.20;99.90
57753;DHT22;43583;53.132;6.574;2023-12-20T10:45:57;7.20;99.90
57753;DHT22;43583;53.132;6.574;2023-12-20T10:48:23;7.30;99.90
57753;DHT22;43583;53.132;6.574;2023-12-20T10:50:55;7.40;99.90
57753;DHT22;43583;53.132;6.574;2023-12-20T10:53:22;7.40;99.90
57753;DHT22;43583;53.132;6.574;2023-12-20T10:55:49;7.50;99.90
57753;DHT22;43583;53.132;6.574;2023-12-20T10:58:16;7.40;99.90
57753;DHT22;43583;53.132;6.574;2023-12-20T11:00:45;7.30;99.90
57753;DHT22;43583;53.132;6.574;2023-12-20T11:03:13;7.20;99.90
57753;DHT22;43583;53.132;6.574;2023-12-20T11:08:09;7.10;99.90
57753;DHT22;43583;53.132;6.574;2023-12-20T11:13:17;7.30;99.90
57753;DHT22;43583;53.132;6.574;2023-12-20T11:15:45;7.40;99.90
57753;DHT22;43583;53.132;6.574;2023-12-20T11:18:11;7.40;99.90
57753;DHT22;43583;53.132;6.574;2023-12-20T11:20:39;7.50;99.90
57753;DHT22;43583;53.132;6.574;2023-12-20T11:23:05;7.60;99.90
57753;DHT22;43583;53.132;6.574;2023-12-20T11:25:49;7.70;99.90
57753;DHT22;43583;53.132;6.574;2023-12-20T11:28:20;7.70;99.90
57753;DHT22;43583;53.132;6.574;2023-12-20T11:30:49;7.70;99.90
57753;DHT22;43583;53.132;6.574;2023-12-20T11:33:16;7.70;99.90
57753;DHT22;43583;53.132;6.574;2023-12-20T11:35:42;7.80;99.90
57753;DHT22;43583;53.132;6.574;2023-12-20T11:38:09;7.80;99.90
57753;DHT22;43583;53.132;6.574;2023-12-20T11:40:36;7.80;99.90
57753;DHT22;43583;53.132;6.574;2023-12-20T11:43:02;7.80;99.90
57753;DHT22;43583;53.132;6.574;2023-12-20T11:45:28;7.90;99.90
57753;DHT22;43583;53.132;6.574;2023-12-20T11:47:54;8.00;99.90
57753;DHT22;43583;53.132;6.574;2023-12-20T11:50:23;8.10;99.90
57753;DHT22;43583;53.132;6.574;2023-12-20T11:52:51;8.20;99.90
57753;DHT22;43583;53.132;6.574;2023-12-20T11:55:17;8.30;99.90
57753;DHT22;43583;53.132;6.574;2023-12-20T11:57:43;8.30;99.90
57753;DHT22;43583;53.132;6.574;2023-12-20T12:00:10;8.30;99.90
57753;DHT22;43583;53.132;6.574;2023-12-20T12:02:36;8.20;99.90
57753;DHT22;43583;53.132;6.574;2023-12-20T12:05:02;8.20;99.90
57753;DHT22;43583;53.132;6.574;2023-12-20T12:07:30;8.20;99.90
57753;DHT22;43583;53.132;6.574;2023-12-20T12:09:56;8.30;99.90
57753;DHT22;43583;53.132;6.574;2023-12-20T12:12:22;8.30;99.90
57753;DHT22;43583;53.132;6.574;2023-12-20T12:14:49;8.30;99.90
57753;DHT22;43583;53.132;6.574;2023-12-20T12:17:15;8.30;99.90
57753;DHT22;43583;53.132;6.574;2023-12-20T12:19:41;8.20;99.90
57753;DHT22;43583;53.132;6.574;2023-12-20T12:22:12;8.20;99.90
57753;DHT22;43583;53.132;6.574;2023-12-20T12:24:48;8.20;99.90
57753;DHT22;43583;53.132;6.574;2023-12-20T12:27:15;8.10;99.90
57753;DHT22;43583;53.132;6.574;2023-12-20T12:30:03;8.10;99.90
57753;DHT22;43583;53.132;6.574;2023-12-20T12:32:35;8.10;99.90
57753;DHT22;43583;53.132;6.574;2023-12-20T12:35:03;8.10;99.90
57753;DHT22;43583;53.132;6.574;2023-12-20T12:37:33;8.00;99.90
57753;DHT22;43583;53.132;6.574;2023-12-20T12:39:59;8.00;99.90
57753;DHT22;43583;53.132;6.574;2023-12-20T12:42:25;8.10;99.90
57753;DHT22;43583;53.132;6.574;2023-12-20T12:44:54;8.00;99.90
57753;DHT22;43583;53.132;6.574;2023-12-20T12:47:20;8.00;99.90
57753;DHT22;43583;53.132;6.574;2023-12-20T12:49:46;7.90;99.90
57753;DHT22;43583;53.132;6.574;2023-12-20T12:52:12;8.00;99.90
57753;DHT22;43583;53.132;6.574;2023-12-20T12:54:37;8.00;99.90
57753;DHT22;43583;53.132;6.574;2023-12-20T12:57:03;8.10;99.90
57753;DHT22;43583;53.132;6.574;2023-12-20T12:59:29;8.10;99.90
57753;DHT22;43583;53.132;6.574;2023-12-20T13:01:55;8.20;99.90
57753;DHT22;43583;53.132;6.574;2023-12-20T13:04:21;8.30;99.90
57753;DHT22;43583;53.132;6.574;2023-12-20T13:06:46;8.30;99.90
57753;DHT22;43583;53.132;6.574;2023-12-20T13:09:12;8.30;99.90
57753;DHT22;43583;53.132;6.574;2023-12-20T13:11:38;8.30;99.90
57753;DHT22;43583;53.132;6.574;2023-12-20T13:14:03;8.20;99.90
57753;DHT22;43583;53.132;6.574;2023-12-20T13:16:29;8.20;99.90
57753;DHT22;43583;53.132;6.574;2023-12-20T13:18:55;8.10;99.90
57753;DHT22;43583;53.132;6.574;2023-12-20T13:21:21;8.10;99.90
57753;DHT22;43583;53.132;6.574;2023-12-20T13:23:47;8.10;99.90
57753;DHT22;43583;53.132;6.574;2023-12-20T13:26:12;8.00;99.90
57753;DHT22;43583;53.132;6.574;2023-12-20T13:28:38;8.00;99.90
57753;DHT22;43583;53.132;6.574;2023-12-20T13:31:04;7.90;99.90
57753;DHT22;43583;53.132;6.574;2023-12-20T13:33:29;7.90;99.90
57753;DHT22;43583;53.132;6.574;2023-12-20T13:35:55;7.80;99.90
57753;DHT22;43583;53.132;6.574;2023-12-20T13:38:21;7.80;99.90
57753;DHT22;43583;53.132;6.574;2023-12-20T13:40:47;7.70;99.90
57753;DHT22;43583;53.132;6.574;2023-12-20T13:43:13;7.70;99.90
57753;DHT22;43583;53.132;6.574;2023-12-20T13:45:39;7.70;99.90
57753;DHT22;43583;53.132;6.574;2023-12-20T13:48:05;7.60;99.90
57753;DHT22;43583;53.132;6.574;2023-12-20T13:50:31;7.60;99.90
57753;DHT22;43583;53.132;6.574;2023-12-20T13:52:56;7.60;99.90
57753;DHT22;43583;53.132;6.574;2023-12-20T13:55:22;7.50;99.90
57753;DHT22;43583;53.132;6.574;2023-12-20T13:57:51;7.50;99.90
57753;DHT22;43583;53.132;6.574;2023-12-20T14:00:17;7.40;99.90
57753;DHT22;43583;53.132;6.574;2023-12-20T14:02:42;7.40;99.90
57753;DHT22;43583;53.132;6.574;2023-12-20T14:05:09;7.40;99.90
57753;DHT22;43583;53.132;6.574;2023-12-20T14:07:35;7.40;99.90
57753;DHT22;43583;53.132;6.574;2023-12-20T14:10:01;7.40;99.90
57753;DHT22;43583;53.132;6.574;2023-12-20T14:12:27;7.30;99.90
57753;DHT22;43583;53.132;6.574;2023-12-20T14:14:53;7.30;99.90
57753;DHT22;43583;53.132;6.574;2023-12-20T14:17:22;7.30;99.90
57753;DHT22;43583;53.132;6.574;2023-12-20T14:19:47;7.30;99.90
57753;DHT22;43583;53.132;6.574;2023-12-20T14:22:13;7.30;99.90
57753;DHT22;43583;53.132;6.574;2023-12-20T14:24:42;7.30;99.90
57753;DHT22;43583;53.132;6.574;2023-12-20T14:27:08;7.30;99.90
57753;DHT22;43583;53.132;6.574;2023-12-20T14:29:35;7.30;99.90
57753;DHT22;43583;53.132;6.574;2023-12-20T14:32:00;7.30;99.90
57753;DHT22;43583;53.132;6.574;2023-12-20T14:34:28;7.30;99.90
57753;DHT22;43583;53.132;6.574;2023-12-20T14:36:54;7.30;99.90
57753;DHT22;43583;53.132;6.574;2023-12-20T14:39:19;7.20;99.90
57753;DHT22;43583;53.132;6.574;2023-12-20T14:41:45;7.20;99.90
57753;DHT22;43583;53.132;6.574;2023-12-20T14:44:11;7.10;99.90
57753;DHT22;43583;53.132;6.574;2023-12-20T14:46:36;7.20;99.90
57753;DHT22;43583;53.132;6.574;2023-12-20T14:49:04;7.20;99.90
57753;DHT22;43583;53.132;6.574;2023-12-20T14:51:30;7.10;99.90
57753;DHT22;43583;53.132;6.574;2023-12-20T14:53:55;7.10;99.90
57753;DHT22;43583;53.132;6.574;2023-12-20T14:56:23;7.10;99.90
57753;DHT22;43583;53.132;6.574;2023-12-20T14:58:49;7.10;99.90
57753;DHT22;43583;53.132;6.574;2023-12-20T15:01:15;7.10;99.90
57753;DHT22;43583;53.132;6.574;2023-12-20T15:03:40;7.00;99.90
57753;DHT22;43583;53.132;6.574;2023-12-20T15:06:06;7.00;99.90
57753;DHT22;43583;53.132;6.574;2023-12-20T15:08:32;7.00;99.90
57753;DHT22;43583;53.132;6.574;2023-12-20T15:10:58;7.00;99.90
57753;DHT22;43583;53.132;6.574;2023-12-20T15:13:24;7.00;99.90
57753;DHT22;43583;53.132;6.574;2023-12-20T15:15:50;7.00;99.90
57753;DHT22;43583;53.132;6.574;2023-12-20T15:18:15;7.00;99.90
57753;DHT22;43583;53.132;6.574;2023-12-20T15:20:41;7.00;99.90
57753;DHT22;43583;53.132;6.574;2023-12-20T15:23:09;7.00;99.90
57753;DHT22;43583;53.132;6.574;2023-12-20T15:25:35;7.00;99.90
57753;DHT22;43583;53.132;6.574;2023-12-20T15:28:01;7.00;99.90
57753;DHT22;43583;53.132;6.574;2023-12-20T15:30:28;7.00;99.90
57753;DHT22;43583;53.132;6.574;2023-12-20T15:32:55;7.00;99.90
57753;DHT22;43583;53.132;6.574;2023-12-20T15:35:21;7.00;99.90
57753;DHT22;43583;53.132;6.574;2023-12-20T15:37:47;6.90;99.90
57753;DHT22;43583;53.132;6.574;2023-12-20T15:40:13;7.00;99.90
57753;DHT22;43583;53.132;6.574;2023-12-20T15:42:40;6.90;99.90
57753;DHT22;43583;53.132;6.574;2023-12-20T15:45:07;6.90;99.90